| time (UTC) | temp F | wind direction | speed MPH | gust MPH | rain 1hr in | rain 24hr in | rain mn in | humidity % | barometer mb |
| 20260510220032 | 63 | 249 | 1.0 | 3.0 | 0.00 | 0.01 | 0.01 | 49 | 1012.4 |
| 20260510214532 | 64 | 300 | 1.0 | 3.0 | 0.00 | 0.02 | 0.01 | 50 | 1012.0 |
| 20260510213034 | 65 | 290 | 1.0 | 8.0 | 0.00 | 0.02 | 0.01 | 49 | 1012.0 |
| 20260510211533 | 65 | 22 | 2.0 | 4.0 | 0.00 | 0.02 | 0.01 | 51 | 1011.8 |
| 20260510210034 | 66 | 270 | 2.0 | 4.0 | 0.00 | 0.02 | 0.01 | 51 | 1011.8 |
| 20260510204537 | 65 | 254 | 1.0 | 4.0 | 0.00 | 0.09 | 0.01 | 56 | 1011.8 |
| 20260510203030 | 65 | 253 | 1.0 | 3.0 | 0.00 | 0.09 | 0.01 | 58 | 1011.9 |
| 20260510201534 | 65 | 281 | 1.0 | 5.0 | 0.00 | 0.09 | 0.01 | 60 | 1011.9 |
| 20260510200032 | 64 | 163 | 0.0 | 3.0 | 0.00 | 0.09 | 0.01 | 63 | 1011.9 |
| 20260510194533 | 64 | 275 | 0.0 | 4.0 | 0.00 | 0.16 | 0.01 | 62 | 1012.1 |
| 20260510193033 | 63 | 305 | 1.0 | 4.0 | 0.00 | 0.16 | 0.01 | 63 | 1012.3 |
| 20260510191535 | 63 | 113 | 1.0 | 4.0 | 0.00 | 0.16 | 0.01 | 66 | 1012.2 |
| 20260510190037 | 64 | 277 | 0.0 | 3.0 | 0.00 | 0.16 | 0.01 | 65 | 1012.3 |
| 20260510184532 | 64 | 273 | 1.0 | 3.0 | 0.00 | 0.21 | 0.01 | 64 | 1012.2 |
| 20260510183037 | 65 | 284 | 1.0 | 4.0 | 0.00 | 0.21 | 0.01 | 65 | 1012.1 |
| 20260510181545 | 62 | 257 | 1.0 | 3.0 | 0.00 | 0.21 | 0.01 | 76 | 1012.1 |
| 20260510180039 | 62 | 248 | 1.0 | 5.0 | 0.00 | 0.21 | 0.01 | 76 | 1012.2 |
| 20260510174536 | 60 | 274 | 1.0 | 3.0 | 0.00 | 0.30 | 0.01 | 79 | 1012.3 |
| 20260510173034 | 62 | 221 | 1.0 | 4.0 | 0.00 | 0.30 | 0.01 | 73 | 1012.1 |
| 20260510171536 | 60 | 0 | 0.0 | 2.0 | 0.00 | 0.30 | 0.01 | 76 | 1012.1 |
| 20260510170032 | 62 | 0 | 0.0 | 2.0 | 0.00 | 0.30 | 0.01 | 71 | 1012.1 |
| 20260510164534 | 65 | 269 | 1.0 | 4.0 | 0.00 | 0.35 | 0.01 | 64 | 1012.0 |
| 20260510163032 | 65 | 273 | 1.0 | 3.0 | 0.00 | 0.35 | 0.01 | 67 | 1012.0 |
| 20260510161530 | 63 | 191 | 1.0 | 4.0 | 0.00 | 0.35 | 0.01 | 69 | 1012.3 |
| 20260510160037 | 63 | 195 | 1.0 | 3.0 | 0.00 | 0.35 | 0.01 | 68 | 1012.3 |
| 20260510154536 | 62 | 228 | 0.0 | 2.0 | 0.00 | 0.42 | 0.01 | 71 | 1012.2 |
| 20260510153032 | 62 | 248 | 0.0 | 3.0 | 0.00 | 0.42 | 0.01 | 68 | 1012.1 |
| 20260510151539 | 63 | 273 | 1.0 | 3.0 | 0.00 | 0.42 | 0.01 | 69 | 1012.0 |
| 20260510150042 | 61 | 150 | 1.0 | 2.0 | 0.00 | 0.42 | 0.01 | 74 | 1012.1 |
| 20260510144536 | 61 | 257 | 1.0 | 3.0 | 0.00 | 0.46 | 0.01 | 74 | 1012.1 |
| 20260510143034 | 60 | 231 | 1.0 | 4.0 | 0.00 | 0.46 | 0.01 | 78 | 1012.0 |
| 20260510141534 | 58 | 196 | 1.0 | 3.0 | 0.00 | 0.46 | 0.01 | 85 | 1012.0 |
| 20260510140034 | 55 | 125 | 1.0 | 3.0 | 0.00 | 0.46 | 0.01 | 85 | 1012.1 |
| 20260510134532 | 55 | 247 | 1.0 | 3.0 | 0.00 | 0.46 | 0.01 | 85 | 1012.3 |
| 20260510133031 | 56 | 143 | 1.0 | 3.0 | 0.00 | 0.46 | 0.01 | 85 | 1012.0 |
| 20260510131534 | 56 | 223 | 1.0 | 3.0 | 0.00 | 0.46 | 0.01 | 85 | 1011.8 |
| 20260510130034 | 54 | 244 | 1.0 | 5.0 | 0.00 | 0.46 | 0.01 | 90 | 1012.0 |
| 20260510124531 | 52 | 249 | 1.0 | 3.0 | 0.00 | 0.46 | 0.01 | 92 | 1011.9 |
| 20260510123033 | 50 | 178 | 0.0 | 3.0 | 0.00 | 0.46 | 0.01 | 95 | 1011.9 |
| 20260510121531 | 50 | 215 | 0.0 | 1.0 | 0.00 | 0.46 | 0.01 | 98 | 1012.0 |
| 20260510120031 | 49 | 246 | 0.0 | 3.0 | 0.00 | 0.46 | 0.01 | 98 | 1011.9 |
| 20260510114537 | 49 | 0 | 0.0 | 1.0 | 0.00 | 0.46 | 0.01 | 98 | 1011.6 |
| 20260510113032 | 49 | 0 | 0.0 | 2.0 | 0.00 | 0.46 | 0.01 | 98 | 1011.9 |
| 20260510111535 | 48 | 207 | 0.0 | 1.0 | 0.00 | 0.46 | 0.01 | 98 | 1011.8 |
| 20260510110033 | 48 | 0 | 0.0 | 1.0 | 0.00 | 0.46 | 0.01 | 99 | 1011.5 |
| 20260510104533 | 48 | 0 | 0.0 | 1.0 | 0.00 | 0.46 | 0.01 | 99 | 1011.0 |
| 20260510103031 | 48 | 0 | 0.0 | 2.0 | 0.00 | 0.46 | 0.01 | 99 | 1010.8 |
| 20260510101534 | 48 | 211 | 0.0 | 1.0 | 0.00 | 0.46 | 0.01 | 99 | 1010.3 |
| 20260510100040 | 47 | 83 | 0.0 | 1.0 | 0.00 | 0.46 | 0.01 | 99 | 1010.3 |
| 20260510094544 | 47 | 0 | 0.0 | 1.0 | 0.00 | 0.46 | 0.01 | 99 | 1010.3 |
| 20260510093035 | 47 | 0 | 0.0 | 1.0 | 0.00 | 0.46 | 0.01 | 99 | 1009.9 |
| 20260510091541 | 47 | 0 | 0.0 | 1.0 | 0.00 | 0.46 | 0.01 | 99 | 1010.2 |
| 20260510090034 | 47 | 0 | 0.0 | 1.0 | 0.00 | 0.46 | 0.01 | 99 | 1010.2 |
| 20260510084535 | 46 | 0 | 0.0 | 0.0 | 0.00 | 0.46 | 0.01 | 99 | 1010.6 |
| 20260510083049 | 46 | 0 | 0.0 | 2.0 | 0.00 | 0.46 | 0.01 | 99 | 1010.6 |
| 20260510081536 | 46 | 0 | 0.0 | 0.0 | 0.00 | 0.46 | 0.01 | 99 | 1010.8 |
| 20260510080032 | 46 | 0 | 0.0 | 0.0 | 0.00 | 0.46 | 0.01 | 99 | 1010.6 |
| 20260510074533 | 46 | 0 | 0.0 | 1.0 | 0.00 | 0.46 | 0.01 | 99 | 1010.6 |
| 20260510073035 | 45 | 0 | 0.0 | 1.0 | 0.00 | 0.46 | 0.01 | 99 | 1010.5 |
| 20260510071538 | 44 | 0 | 0.0 | 1.0 | 0.00 | 0.46 | 0.01 | 98 | 1010.5 |
| 20260510070037 | 44 | 0 | 0.0 | 1.0 | 0.01 | 0.46 | 0.01 | 98 | 1010.3 |
| 20260510064531 | 44 | 0 | 0.0 | 0.0 | 0.01 | 0.46 | 0.01 | 98 | 1010.8 |
| 20260510063041 | 45 | 0 | 0.0 | 0.0 | 0.01 | 0.46 | 0.01 | 98 | 1011.0 |
| 20260510061533 | 45 | 0 | 0.0 | 0.0 | 0.01 | 0.46 | 0.01 | 98 | 1010.8 |
| 20260510060040 | 45 | 0 | 0.0 | 0.0 | 0.00 | 0.45 | 0.00 | 98 | 1010.8 |
| 20260510054537 | 45 | 0 | 0.0 | 0.0 | 0.00 | 0.45 | 0.00 | 98 | 1010.8 |
| 20260510053030 | 45 | 0 | 0.0 | 0.0 | 0.00 | 0.45 | 0.00 | 98 | 1010.7 |
| 20260510051534 | 45 | 0 | 0.0 | 1.0 | 0.00 | 0.45 | 0.00 | 98 | 1010.7 |
| 20260510050029 | 45 | 0 | 0.0 | 1.0 | 0.00 | 0.45 | 0.00 | 98 | 1010.9 |
| 20260510044533 | 45 | 0 | 0.0 | 1.0 | 0.00 | 0.45 | 0.00 | 98 | 1011.0 |
| 20260510043035 | 45 | 16 | 0.0 | 1.0 | 0.00 | 0.45 | 0.00 | 98 | 1011.1 |
| 20260510041535 | 45 | 0 | 0.0 | 2.0 | 0.00 | 0.45 | 0.00 | 98 | 1011.3 |
| 20260510040030 | 45 | 0 | 0.0 | 1.0 | 0.00 | 0.45 | 0.00 | 97 | 1011.2 |
| 20260510034532 | 45 | 223 | 0.0 | 2.0 | 0.00 | 0.45 | 0.45 | 98 | 1011.1 |
| 20260510033035 | 44 | 0 | 0.0 | 2.0 | 0.00 | 0.45 | 0.45 | 98 | 1011.2 |
| 20260510031531 | 44 | 111 | 0.0 | 1.0 | 0.00 | 0.45 | 0.45 | 98 | 1011.1 |
| 20260510030033 | 44 | 0 | 0.0 | 2.0 | 0.00 | 0.45 | 0.45 | 97 | 1011.5 |
| 20260510024530 | 44 | 102 | 0.0 | 1.0 | 0.00 | 0.45 | 0.45 | 97 | 1011.8 |
| 20260510023034 | 44 | 0 | 0.0 | 1.0 | 0.00 | 0.45 | 0.45 | 97 | 1011.7 |
| 20260510021534 | 44 | 0 | 0.0 | 1.0 | 0.00 | 0.45 | 0.45 | 97 | 1011.7 |
| 20260510020034 | 44 | 44 | 0.0 | 2.0 | 0.00 | 0.45 | 0.45 | 97 | 1011.7 |
| 20260510014532 | 44 | 0 | 0.0 | 1.0 | 0.00 | 0.45 | 0.45 | 96 | 1011.7 |
| 20260510013032 | 44 | 0 | 0.0 | 3.0 | 0.00 | 0.45 | 0.45 | 97 | 1011.8 |
| 20260510011532 | 44 | 192 | 0.0 | 2.0 | 0.00 | 0.45 | 0.45 | 97 | 1011.9 |
| 20260510010032 | 44 | 0 | 0.0 | 1.0 | 0.00 | 0.45 | 0.45 | 96 | 1012.0 |
| 20260510004531 | 44 | 250 | 0.0 | 1.0 | 0.00 | 0.45 | 0.45 | 96 | 1011.9 |
| 20260510003040 | 44 | 0 | 0.0 | 1.0 | 0.00 | 0.45 | 0.45 | 95 | 1011.6 |
| 20260510001533 | 45 | 182 | 0.0 | 4.0 | 0.00 | 0.45 | 0.45 | 95 | 1011.4 |
| 20260510000031 | 45 | 113 | 0.0 | 4.0 | 0.00 | 0.45 | 0.45 | 95 | 1011.1 |
| 20260509234539 | 45 | 64 | 0.0 | 2.0 | 0.00 | 0.45 | 0.45 | 96 | 1010.9 |
| 20260509233036 | 45 | 0 | 0.0 | 3.0 | 0.00 | 0.45 | 0.45 | 96 | 1011.0 |
| 20260509231540 | 45 | 263 | 0.0 | 1.0 | 0.00 | 0.45 | 0.45 | 95 | 1010.9 |
| 20260509230034 | 45 | 0 | 0.0 | 1.0 | 0.00 | 0.45 | 0.45 | 96 | 1011.0 |
| 20260509224534 | 45 | 323 | 0.0 | 1.0 | 0.00 | 0.45 | 0.45 | 96 | 1011.0 |
| 20260509223031 | 45 | 298 | 0.0 | 2.0 | 0.01 | 0.45 | 0.45 | 96 | 1011.0 |
| 20260509221535 | 45 | 123 | 0.0 | 3.0 | 0.01 | 0.45 | 0.45 | 96 | 1011.0 |